Time;durP1;ratioP1;P1;durP2;ratioP2;P2;SDS_P1;SDS_P2;PMS_P1;PMS_P2;Temp;Humidity;BMP_temperature;BMP_pressure;BME280_temperature;BME280_humidity;BME280_pressure;Samples;Min_cycle;Max_cycle;Signal;HPM_P1;HPM_P2
2022/01/27 00:05:28;;;;;;;19.25;7.55;;;;;;;8.40;77.55;102378.69;7391725;19;20026;-68
2022/01/27 00:13:01;;;;;;;17.35;6.32;;;;;;;8.43;78.18;102372.44;7387971;19;20021;-67
2022/01/27 00:15:31;;;;;;;19.52;6.78;;;;;;;8.41;77.48;102371.66;7388222;19;20014;-67
2022/01/27 00:18:03;;;;;;;17.90;7.38;;;;;;;8.38;77.76;102369.25;7390189;19;20369;-67
2022/01/27 00:20:31;;;;;;;18.40;7.63;;;;;;;8.35;77.96;102367.66;7389450;19;20021;-67
2022/01/27 00:22:58;;;;;;;20.67;8.00;;;;;;;8.34;77.98;102362.50;7392503;19;20039;-68
2022/01/27 00:25:25;;;;;;;21.95;7.85;;;;;;;8.33;77.86;102356.44;7388298;19;20358;-67
2022/01/27 00:27:53;;;;;;;16.58;7.18;;;;;;;8.32;78.22;102362.63;7388455;19;20027;-67
2022/01/27 00:30:20;;;;;;;20.52;7.70;;;;;;;8.34;79.14;102367.75;7390080;19;20013;-66
2022/01/27 00:32:47;;;;;;;15.70;6.28;;;;;;;8.31;77.96;102354.84;7392163;19;20015;-66
2022/01/27 00:35:16;;;;;;;18.98;7.70;;;;;;;8.36;79.98;102360.63;7391786;19;20028;-67
2022/01/27 00:37:43;;;;;;;21.05;7.38;;;;;;;8.39;79.72;102365.66;7390107;19;20041;-70
2022/01/27 00:40:12;;;;;;;18.27;6.47;;;;;;;8.42;79.94;102360.25;7387370;19;20019;-67
2022/01/27 00:42:40;;;;;;;18.10;7.40;;;;;;;8.41;79.59;102369.06;7387399;19;20360;-66
2022/01/27 00:45:08;;;;;;;19.65;7.03;;;;;;;8.39;79.28;102353.41;7389593;19;20338;-67
2022/01/27 00:47:35;;;;;;;19.52;7.07;;;;;;;8.38;78.90;102353.53;7384922;19;20010;-66
2022/01/27 00:50:03;;;;;;;23.52;8.27;;;;;;;8.39;79.72;102355.19;7388867;19;20070;-66
2022/01/27 00:52:36;;;;;;;20.23;7.38;;;;;;;8.43;80.03;102354.88;7388458;19;20110;-67
2022/01/27 00:55:08;;;;;;;21.00;6.97;;;;;;;8.45;79.99;102352.16;7390324;19;20777;-67
2022/01/27 01:00:19;;;;;;;17.70;6.38;;;;;;;8.43;80.47;102354.06;7386211;19;20034;-67
2022/01/27 01:02:55;;;;;;;20.92;8.02;;;;;;;8.44;79.94;102345.22;7392599;19;20484;-67
2022/01/27 01:07:54;;;;;;;18.95;6.35;;;;;;;8.37;79.37;102343.97;7389132;19;20472;-66
2022/01/27 01:15:31;;;;;;;18.38;7.65;;;;;;;8.37;80.35;102323.84;7386732;19;20015;-68
2022/01/27 01:18:06;;;;;;;14.90;6.30;;;;;;;8.39;80.90;102324.56;7390099;19;20011;-66
2022/01/27 01:30:50;;;;;;;21.95;8.75;;;;;;;8.44;80.96;102311.97;7387987;19;20011;-65
2022/01/27 01:33:23;;;;;;;24.60;7.78;;;;;;;8.45;81.16;102308.41;7389991;19;20007;-67
2022/01/27 01:36:00;;;;;;;16.80;5.25;;;;;;;8.47;81.30;102306.56;7386708;19;20006;-66
2022/01/27 01:38:29;;;;;;;14.85;5.53;;;;;;;8.50;81.09;102305.50;7389372;19;20034;-67
2022/01/27 01:40:57;;;;;;;24.23;6.40;;;;;;;8.52;81.41;102314.94;7385639;19;20405;-66
2022/01/27 01:43:25;;;;;;;17.13;6.85;;;;;;;8.51;80.54;102305.41;7388096;19;20452;-67
2022/01/27 01:45:51;;;;;;;19.48;7.72;;;;;;;8.50;81.03;102308.94;7388582;19;20452;-68
2022/01/27 01:48:19;;;;;;;16.88;5.82;;;;;;;8.51;81.53;102310.63;7387753;19;20015;-67
2022/01/27 01:50:46;;;;;;;18.05;6.97;;;;;;;8.49;80.75;102299.41;7382923;19;20011;-66
2022/01/27 01:53:14;;;;;;;19.30;7.07;;;;;;;8.51;81.44;102292.28;7383162;19;20127;-66
2022/01/27 01:55:41;;;;;;;18.40;6.43;;;;;;;8.57;81.40;102297.13;7381458;19;20110;-66
2022/01/27 01:58:08;;;;;;;20.30;5.97;;;;;;;8.62;81.33;102296.81;7385490;19;20431;-64
2022/01/27 02:00:36;;;;;;;16.42;6.25;;;;;;;8.67;81.65;102288.63;7385489;19;20018;-65
2022/01/27 02:03:03;;;;;;;17.23;5.28;;;;;;;8.67;80.84;102291.25;7385643;19;20368;-67
2022/01/27 02:05:35;;;;;;;16.60;6.40;;;;;;;8.71;81.03;102290.09;7390810;19;20546;-67
2022/01/27 02:08:28;;;;;;;15.57;5.20;;;;;;;8.78;81.37;102294.81;7387960;19;20106;-67
2022/01/27 02:18:40;;;;;;;16.33;6.03;;;;;;;8.97;81.12;102303.09;7394915;19;20662;-65
2022/01/27 02:21:07;;;;;;;13.60;5.35;;;;;;;8.99;81.19;102295.94;7395904;19;20021;-66
2022/01/27 02:23:34;;;;;;;14.60;5.53;;;;;;;9.03;81.24;102293.97;7392793;19;20682;-67
2022/01/27 02:26:00;;;;;;;13.75;5.35;;;;;;;9.04;80.83;102287.75;7390601;19;20084;-66
2022/01/27 02:28:27;;;;;;;17.27;5.30;;;;;;;9.06;81.01;102290.28;7389896;19;20002;-66
2022/01/27 02:30:54;;;;;;;12.02;4.60;;;;;;;9.06;80.83;102290.28;7390563;19;20475;-66
2022/01/27 02:33:32;;;;;;;16.63;5.60;;;;;;;9.06;81.06;102285.88;7390402;19;20472;-67
2022/01/27 02:35:58;;;;;;;16.00;5.68;;;;;;;9.07;81.00;102279.69;7388990;19;20014;-66
2022/01/27 02:38:25;;;;;;;14.18;4.82;;;;;;;9.12;81.78;102285.44;7393437;19;20046;-68
2022/01/27 02:40:59;;;;;;;13.52;5.00;;;;;;;9.16;81.79;102279.03;7389776;19;20006;-65
2022/01/27 02:43:26;;;;;;;13.82;5.63;;;;;;;9.17;81.54;102272.00;7390319;19;20014;-68
2022/01/27 02:46:03;;;;;;;14.55;5.15;;;;;;;9.17;80.95;102264.97;7392467;19;20325;-66
2022/01/27 02:48:30;;;;;;;17.25;7.05;;;;;;;9.19;81.37;102270.97;7388809;19;20018;-65
2022/01/27 02:50:57;;;;;;;15.18;5.90;;;;;;;9.24;81.19;102265.38;7390602;19;20031;-65
2022/01/27 02:53:24;;;;;;;14.00;5.25;;;;;;;9.23;81.23;102264.53;7388259;19;20015;-66
2022/01/27 02:55:51;;;;;;;14.55;4.97;;;;;;;9.23;81.10;102269.78;7389427;19;20365;-68
2022/01/27 02:58:17;;;;;;;13.95;6.57;;;;;;;9.27;81.37;102263.38;7389597;19;20011;-67
2022/01/27 03:00:44;;;;;;;13.00;5.47;;;;;;;9.29;81.13;102268.53;7387452;19;20014;-68
2022/01/27 03:03:11;;;;;;;13.70;5.68;;;;;;;9.30;80.94;102255.25;7392622;19;20007;-68
2022/01/27 03:05:38;;;;;;;11.52;4.05;;;;;;;9.32;81.15;102261.25;7388574;19;20018;-68
2022/01/27 03:08:05;;;;;;;11.60;4.40;;;;;;;9.32;80.75;102252.53;7389559;19;20006;-66
2022/01/27 03:10:39;;;;;;;14.80;5.85;;;;;;;9.34;80.86;102258.53;7387782;19;20036;-67
2022/01/27 03:13:06;;;;;;;12.25;4.93;;;;;;;9.33;80.50;102241.91;7389801;19;20014;-67
2022/01/27 03:15:33;;;;;;;12.60;4.07;;;;;;;9.30;80.36;102250.00;7389341;19;20046;-67
2022/01/27 03:17:59;;;;;;;18.30;6.68;;;;;;;9.35;81.29;102245.25;7391728;19;20007;-66
2022/01/27 03:20:32;;;;;;;13.80;4.22;;;;;;;9.41;81.97;102236.94;7387624;19;20095;-67
2022/01/27 03:23:00;;;;;;;10.93;3.97;;;;;;;9.47;81.16;102240.06;7388640;19;20421;-66
2022/01/27 03:25:27;;;;;;;22.35;8.15;;;;;;;9.51;80.63;102238.91;7385235;19;20042;-67
2022/01/27 03:27:54;;;;;;;10.52;3.70;;;;;;;9.53;81.02;102247.53;7388670;19;20014;-66
2022/01/27 03:30:21;;;;;;;9.70;3.45;;;;;;;9.54;80.37;102236.91;7389894;19;20607;-66
2022/01/27 03:32:48;;;;;;;10.68;3.30;;;;;;;9.58;80.66;102229.63;7389689;19;20018;-67
2022/01/27 03:35:15;;;;;;;13.23;4.22;;;;;;;9.57;80.67;102243.72;7386975;19;20356;-67
2022/01/27 03:37:42;;;;;;;11.38;4.22;;;;;;;9.58;80.52;102238.38;7390601;19;20002;-66
2022/01/27 03:40:09;;;;;;;13.30;5.55;;;;;;;9.59;80.80;102236.59;7392281;19;20037;-66
2022/01/27 03:42:44;;;;;;;11.95;4.10;;;;;;;9.59;81.40;102237.41;7386758;19;20006;-67
2022/01/27 03:45:11;;;;;;;13.57;4.30;;;;;;;9.57;80.55;102241.94;7389012;19;20049;-67
2022/01/27 03:47:38;;;;;;;12.90;4.22;;;;;;;9.57;81.37;102235.84;7390821;19;20030;-67
2022/01/27 03:50:06;;;;;;;8.00;3.55;;;;;;;9.52;80.94;102238.81;7390456;19;20038;-66
2022/01/27 03:52:33;;;;;;;12.20;4.03;;;;;;;9.55;81.22;102222.00;7388472;19;20015;-65
2022/01/27 03:55:00;;;;;;;14.05;5.63;;;;;;;9.57;81.46;102233.22;7388777;19;20014;-66
2022/01/27 03:57:27;;;;;;;12.02;4.35;;;;;;;9.59;82.44;102234.78;7387683;19;20086;-66
2022/01/27 03:59:53;;;;;;;6.68;3.38;;;;;;;9.62;82.21;102226.69;7388048;19;20024;-67
2022/01/27 04:02:20;;;;;;;13.30;4.28;;;;;;;9.62;81.91;102236.34;7385738;19;20014;-66
2022/01/27 04:04:48;;;;;;;11.32;4.72;;;;;;;9.62;82.18;102226.69;7392003;19;20332;-65
2022/01/27 04:07:15;;;;;;;12.02;4.47;;;;;;;9.61;81.94;102221.53;7388297;19;20138;-66
2022/01/27 04:09:42;;;;;;;11.10;3.67;;;;;;;9.63;82.53;102227.50;7387920;19;20006;-66
2022/01/27 04:12:09;;;;;;;16.15;5.55;;;;;;;9.62;82.14;102210.06;7388309;19;20010;-66
2022/01/27 04:14:36;;;;;;;13.95;4.90;;;;;;;9.64;82.97;102211.66;7387559;19;20022;-67
2022/01/27 04:17:04;;;;;;;9.57;3.53;;;;;;;9.65;82.55;102202.78;7388616;19;20828;-66
2022/01/27 04:19:31;;;;;;;10.52;4.75;;;;;;;9.67;82.49;102198.28;7389637;19;20083;-66
2022/01/27 04:21:58;;;;;;;9.35;3.47;;;;;;;9.68;82.12;102209.63;7388273;19;20012;-66
2022/01/27 04:24:25;;;;;;;11.85;4.55;;;;;;;9.66;82.29;102199.22;7385177;19;20408;-66
2022/01/27 04:27:00;;;;;;;15.80;5.07;;;;;;;9.70;83.01;102210.38;7384644;19;20014;-66
2022/01/27 04:29:28;;;;;;;9.63;3.47;;;;;;;9.73;82.98;102199.63;7386407;19;20003;-68
2022/01/27 04:32:01;;;;;;;14.20;3.05;;;;;;;9.72;82.66;102192.66;7389572;19;20038;-66
2022/01/27 04:34:31;;;;;;;12.05;3.88;;;;;;;9.71;82.54;102197.09;7389680;19;20129;-65
2022/01/27 04:36:59;;;;;;;9.77;3.33;;;;;;;9.70;81.94;102189.34;7387401;19;20018;-67
2022/01/27 04:39:34;;;;;;;9.63;3.08;;;;;;;9.71;82.45;102191.00;7382442;19;20038;-67
2022/01/27 04:42:11;;;;;;;11.52;4.38;;;;;;;9.74;82.94;102185.53;7384733;19;20007;-67
2022/01/27 04:44:49;;;;;;;11.88;3.30;;;;;;;9.72;82.40;102177.75;7388016;19;20014;-66
2022/01/27 04:47:23;;;;;;;11.18;4.15;;;;;;;9.73;82.48;102189.94;7388764;19;20341;-66
2022/01/27 04:49:50;;;;;;;9.75;3.35;;;;;;;9.77;82.85;102185.28;7391709;19;20075;-67
2022/01/27 04:52:18;;;;;;;12.02;4.75;;;;;;;9.75;82.13;102168.81;7391444;19;20007;-66
2022/01/27 04:57:20;;;;;;;12.73;5.53;;;;;;;9.75;82.35;102174.88;7386703;19;20014;-66
2022/01/27 04:59:47;;;;;;;9.63;3.00;;;;;;;9.77;82.36;102185.28;7388411;19;20011;-66
2022/01/27 05:02:23;;;;;;;11.65;4.15;;;;;;;9.78;82.62;102181.72;7390134;19;20134;-66
2022/01/27 05:04:51;;;;;;;11.00;4.10;;;;;;;9.79;82.48;102186.88;7392816;19;20010;-66
2022/01/27 05:07:38;;;;;;;11.23;5.15;;;;;;;9.82;82.60;102176.09;7388102;19;20019;-65
2022/01/27 05:12:50;;;;;;;8.55;4.18;;;;;;;9.85;82.46;102177.69;7386575;19;20014;-67
2022/01/27 05:15:18;;;;;;;10.55;3.85;;;;;;;9.86;82.58;102176.72;7389754;19;20248;-67
2022/01/27 05:17:45;;;;;;;13.32;4.22;;;;;;;9.84;82.40;102174.22;7388243;19;20010;-67
2022/01/27 05:20:12;;;;;;;10.98;3.15;;;;;;;9.87;82.41;102170.50;7390024;19;20349;-66
2022/01/27 05:22:39;;;;;;;7.75;2.92;;;;;;;9.84;82.07;102155.81;7389077;19;20011;-66
2022/01/27 05:25:07;;;;;;;8.65;3.88;;;;;;;9.85;82.32;102162.72;7387947;19;20130;-67
2022/01/27 05:27:34;;;;;;;11.63;4.20;;;;;;;9.87;82.93;102173.97;7384957;19;20118;-66
2022/01/27 05:30:01;;;;;;;12.95;3.35;;;;;;;9.88;82.95;102175.66;7391549;19;20024;-67
2022/01/27 05:32:28;;;;;;;11.55;5.43;;;;;;;9.90;83.34;102180.81;7390204;19;20014;-65
2022/01/27 05:34:55;;;;;;;11.25;4.20;;;;;;;9.95;83.74;102181.31;7384507;19;20019;-66
2022/01/27 05:37:22;;;;;;;9.38;3.25;;;;;;;9.97;83.47;102171.50;7388115;19;20015;-68
2022/01/27 05:39:48;;;;;;;8.43;3.13;;;;;;;9.96;82.61;102174.22;7391867;19;20468;-65
2022/01/27 05:42:15;;;;;;;8.68;2.95;;;;;;;10.01;82.70;102174.72;7385505;19;20032;-66
2022/01/27 05:44:42;;;;;;;10.95;4.32;;;;;;;10.00;82.06;102175.69;7391418;19;20066;-65
2022/01/27 05:47:09;;;;;;;11.95;5.82;;;;;;;10.05;83.36;102166.50;7386818;19;20011;-67
2022/01/27 05:49:36;;;;;;;12.48;3.17;;;;;;;10.07;83.19;102164.56;7388496;19;20042;-67
2022/01/27 05:52:03;;;;;;;11.18;3.88;;;;;;;10.12;83.54;102164.22;7395070;19;20022;-66
2022/01/27 05:54:34;;;;;;;10.05;3.80;;;;;;;10.12;82.58;102161.59;7399013;19;20017;-67
2022/01/27 05:57:00;;;;;;;7.25;2.95;;;;;;;10.14;82.59;102165.81;7394146;19;20093;-68
2022/01/27 05:59:27;;;;;;;7.78;2.85;;;;;;;10.16;82.30;102173.59;7394394;19;20006;-67
2022/01/27 06:01:54;;;;;;;9.90;2.15;;;;;;;10.19;82.03;102182.09;7394710;19;20007;-67
2022/01/27 06:04:21;;;;;;;13.50;5.20;;;;;;;10.21;82.22;102176.69;7396996;19;20488;-65
2022/01/27 06:06:49;;;;;;;8.63;4.38;;;;;;;10.22;82.12;102181.84;7394292;19;20010;-66
2022/01/27 06:09:16;;;;;;;9.93;3.40;;;;;;;10.25;82.04;102183.44;7393936;19;20047;-66
2022/01/27 06:11:43;;;;;;;11.32;3.00;;;;;;;10.27;82.32;102184.13;7396839;19;20022;-67
2022/01/27 06:14:14;;;;;;;10.20;3.00;;;;;;;10.32;82.10;102191.66;7395588;19;20010;-65
2022/01/27 06:16:44;;;;;;;7.93;2.70;;;;;;;10.32;81.81;102194.28;7394386;19;20018;-67
2022/01/27 06:19:11;;;;;;;9.55;3.85;;;;;;;10.34;82.79;102190.63;7393157;19;20014;-65
2022/01/27 06:21:39;;;;;;;13.35;4.53;;;;;;;10.36;82.61;102196.59;7390686;19;20027;-66
2022/01/27 06:24:06;;;;;;;6.72;2.80;;;;;;;10.41;83.09;102176.03;7397892;19;20118;-65
2022/01/27 06:26:33;;;;;;;9.27;2.42;;;;;;;10.42;82.30;102169.81;7393740;19;20458;-66
2022/01/27 06:29:00;;;;;;;7.45;2.55;;;;;;;10.43;82.37;102163.59;7388418;19;20022;-67
2022/01/27 06:31:27;;;;;;;9.00;1.80;;;;;;;10.39;81.75;102158.69;7393995;19;20014;-67
2022/01/27 06:33:54;;;;;;;6.30;2.30;;;;;;;10.38;81.35;102162.25;7395412;19;20014;-68
2022/01/27 06:36:20;;;;;;;6.90;1.88;;;;;;;10.39;82.53;102172.69;7392315;19;20015;-67
2022/01/27 06:38:53;;;;;;;6.82;1.75;;;;;;;10.43;82.45;102170.63;7394001;19;20015;-70
2022/01/27 06:41:20;;;;;;;9.45;1.85;;;;;;;10.41;81.81;102173.41;7393340;19;20010;-68
2022/01/27 06:43:47;;;;;;;7.10;2.20;;;;;;;10.40;82.31;102170.88;7392915;19;20015;-65
2022/01/27 06:46:14;;;;;;;5.75;1.52;;;;;;;10.41;82.50;102177.84;7395258;19;20031;-65
2022/01/27 06:48:41;;;;;;;8.00;2.55;;;;;;;10.38;82.30;102181.53;7392426;19;20397;-67
2022/01/27 06:51:08;;;;;;;5.95;2.30;;;;;;;10.42;83.01;102176.84;7392916;19;20014;-65
2022/01/27 06:53:35;;;;;;;9.50;3.85;;;;;;;10.44;83.24;102170.53;7395372;19;20034;-67
2022/01/27 06:56:01;;;;;;;8.55;2.70;;;;;;;10.43;83.11;102170.63;7395247;19;20018;-65
2022/01/27 06:58:28;;;;;;;5.97;2.63;;;;;;;10.46;83.29;102175.69;7392307;19;20014;-70
2022/01/27 07:00:55;;;;;;;9.38;2.20;;;;;;;10.46;83.29;102176.53;7395411;19;20018;-65
2022/01/27 07:03:22;;;;;;;6.28;1.52;;;;;;;10.45;82.81;102172.22;7391862;19;20031;-67
2022/01/27 07:05:49;;;;;;;5.07;2.17;;;;;;;10.48;83.28;102186.91;7388365;19;20479;-66
2022/01/27 07:08:16;;;;;;;8.85;2.80;;;;;;;10.53;83.38;102179.50;7391807;19;20038;-66
2022/01/27 07:10:43;;;;;;;8.35;2.67;;;;;;;10.52;83.14;102181.28;7390302;19;20018;-65
2022/01/27 07:13:10;;;;;;;7.40;1.88;;;;;;;10.55;84.28;102182.84;7392327;19;20015;-66
2022/01/27 07:15:38;;;;;;;10.48;3.70;;;;;;;10.58;85.04;102172.09;7390267;19;20035;-67
2022/01/27 07:18:05;;;;;;;10.00;5.03;;;;;;;10.62;85.62;102178.78;7389915;19;20023;-67
2022/01/27 07:20:32;;;;;;;6.45;2.33;;;;;;;10.63;84.55;102183.09;7390121;19;20006;-67
2022/01/27 07:22:59;;;;;;;5.97;1.70;;;;;;;10.59;83.98;102171.97;7389754;19;20360;-71
2022/01/27 07:25:26;;;;;;;6.72;2.35;;;;;;;10.60;84.44;102180.72;7390949;19;20010;-66
2022/01/27 07:27:58;;;;;;;11.77;3.97;;;;;;;10.59;84.40;102186.94;7389272;19;20015;-67
2022/01/27 07:30:25;;;;;;;7.75;1.85;;;;;;;10.59;84.05;102190.41;7389940;19;20464;-68
2022/01/27 07:32:52;;;;;;;6.70;2.13;;;;;;;10.61;84.38;102193.75;7395636;19;20325;-66
2022/01/27 07:35:18;;;;;;;7.50;2.42;;;;;;;10.61;84.41;102182.41;7391456;19;20014;-66
2022/01/27 07:37:46;;;;;;;9.75;2.05;;;;;;;10.62;84.55;102182.25;7391264;19;20022;-66
2022/01/27 07:40:13;;;;;;;8.93;2.58;;;;;;;10.64;84.43;102187.41;7390657;19;20010;-66
2022/01/27 07:42:40;;;;;;;5.20;1.75;;;;;;;10.66;84.13;102194.25;7391130;19;20651;-65
2022/01/27 07:45:08;;;;;;;8.32;3.78;;;;;;;10.67;84.51;102190.63;7389455;19;20034;-67
2022/01/27 07:47:35;;;;;;;8.63;1.90;;;;;;;10.69;84.71;102186.09;7388905;19;20018;-66
2022/01/27 07:50:02;;;;;;;6.95;2.00;;;;;;;10.74;85.04;102191.00;7391102;19;20110;-67
2022/01/27 07:52:29;;;;;;;7.93;1.92;;;;;;;10.78;85.53;102186.31;7391380;19;20018;-66
2022/01/27 07:54:56;;;;;;;5.50;1.90;;;;;;;10.77;85.05;102184.66;7389151;19;20026;-66
2022/01/27 07:57:23;;;;;;;7.75;1.90;;;;;;;10.78;84.74;102191.59;7387489;19;20515;-66
2022/01/27 07:59:50;;;;;;;6.05;1.80;;;;;;;10.77;84.95;102187.31;7388533;19;20010;-66
2022/01/27 08:02:17;;;;;;;5.97;1.63;;;;;;;10.80;84.91;102198.41;7390664;19;20020;-68
2022/01/27 08:04:46;;;;;;;5.55;2.85;;;;;;;10.83;85.10;102194.69;7393808;19;20124;-65
2022/01/27 08:07:13;;;;;;;16.52;8.27;;;;;;;10.81;85.58;102192.19;7390162;19;20701;-68
2022/01/27 08:09:40;;;;;;;5.07;1.98;;;;;;;10.82;85.85;102196.47;7388645;19;20345;-67
2022/01/27 08:12:08;;;;;;;4.57;1.85;;;;;;;10.82;85.83;102196.47;7390143;19;20030;-66
2022/01/27 08:14:34;;;;;;;9.23;3.42;;;;;;;10.85;85.52;102187.53;7386221;19;20010;-67
2022/01/27 08:17:02;;;;;;;5.88;1.48;;;;;;;10.83;85.64;102197.31;7389570;19;20007;-67
2022/01/27 08:19:29;;;;;;;4.97;1.80;;;;;;;10.87;85.67;102196.16;7389945;19;20013;-66
2022/01/27 08:21:55;;;;;;;6.95;2.15;;;;;;;10.90;85.94;102193.25;7395283;19;20365;-65
2022/01/27 08:24:22;;;;;;;8.63;3.40;;;;;;;10.90;85.55;102202.00;7388431;19;20049;-67
2022/01/27 08:26:51;;;;;;;7.97;4.30;;;;;;;10.90;86.00;102201.16;7389297;19;20014;-66
2022/01/27 08:29:24;;;;;;;5.57;2.50;;;;;;;10.92;85.76;102205.34;7385541;19;20014;-68
2022/01/27 08:32:16;;;;;;;10.73;4.25;;;;;;;10.93;85.79;102209.66;7387248;19;20014;-65
2022/01/27 08:34:44;;;;;;;8.77;2.38;;;;;;;10.92;85.68;102194.78;7385519;19;20021;-66
2022/01/27 08:37:26;;;;;;;8.65;2.35;;;;;;;10.93;85.79;102217.53;7422747;19;20368;-67
2022/01/27 08:39:53;;;;;;;15.15;6.32;;;;;;;10.95;85.95;102212.16;7422560;19;20041;-69
2022/01/27 08:42:20;;;;;;;6.93;2.22;;;;;;;10.95;85.87;102209.53;7421095;19;20011;-66
2022/01/27 08:44:47;;;;;;;7.60;3.42;;;;;;;10.98;86.59;102201.38;7422976;19;20468;-66
2022/01/27 08:47:15;;;;;;;4.47;1.95;;;;;;;10.99;86.07;102205.69;7425407;19;20369;-67
2022/01/27 08:49:44;;;;;;;7.00;2.38;;;;;;;11.01;86.17;102209.06;7423299;19;20010;-66
2022/01/27 08:52:11;;;;;;;7.68;2.38;;;;;;;11.02;86.47;102202.84;7424776;19;20007;-67
2022/01/27 08:54:38;;;;;;;5.00;1.58;;;;;;;11.02;85.78;102198.38;7424735;19;20014;-65
2022/01/27 08:57:06;;;;;;;15.07;4.75;;;;;;;11.03;86.70;102205.31;7419227;19;20019;-67
2022/01/27 08:59:33;;;;;;;9.02;3.50;;;;;;;11.06;86.87;102212.16;7420696;19;20014;-67
2022/01/27 09:02:00;;;;;;;5.05;1.88;;;;;;;11.03;86.43;102205.31;7425412;19;20022;-66
2022/01/27 09:04:27;;;;;;;7.90;3.28;;;;;;;11.05;86.97;102215.75;7424932;19;20021;-66
2022/01/27 09:06:54;;;;;;;7.40;1.83;;;;;;;11.04;87.26;102203.53;7423894;19;20014;-67
2022/01/27 09:09:21;;;;;;;7.15;2.95;;;;;;;11.02;86.84;102210.75;7422061;19;20014;-67
2022/01/27 09:11:48;;;;;;;11.93;5.28;;;;;;;11.04;87.18;102209.63;7419608;19;20025;-66
2022/01/27 09:14:15;;;;;;;6.20;2.15;;;;;;;11.06;87.06;102213.00;7424654;19;20518;-66
2022/01/27 09:16:43;;;;;;;7.13;2.40;;;;;;;11.05;87.28;102211.31;7421222;19;20021;-66
2022/01/27 09:19:31;;;;;;;3.60;1.85;;;;;;;11.03;87.08;102223.75;7423256;19;20018;-67
2022/01/27 09:21:58;;;;;;;14.73;2.92;;;;;;;11.22;91.18;102235.50;7420739;19;20014;-66
2022/01/27 09:24:35;;;;;;;17.83;4.55;;;;;;;11.39;91.62;102240.25;7422112;19;20041;-66
2022/01/27 09:27:02;;;;;;;8.75;2.40;;;;;;;11.45;89.68;102242.38;7422199;19;20014;-67
2022/01/27 09:29:29;;;;;;;8.68;1.92;;;;;;;11.40;87.72;102244.56;7423309;19;20042;-66
2022/01/27 09:31:57;;;;;;;10.32;2.63;;;;;;;11.38;87.80;102251.72;7423142;19;20038;-66
2022/01/27 09:34:25;;;;;;;10.35;3.50;;;;;;;11.34;87.53;102258.22;7421942;19;20010;-67
2022/01/27 09:36:53;;;;;;;11.20;3.33;;;;;;;11.31;87.44;102254.03;7419364;19;20011;-66
2022/01/27 09:39:22;;;;;;;8.65;2.53;;;;;;;11.30;86.67;102252.34;7424343;19;20007;-68
2022/01/27 09:41:53;;;;;;;9.27;4.38;;;;;;;11.27;86.57;102254.41;7423052;19;20014;-66
2022/01/27 09:44:28;;;;;;;8.15;2.53;;;;;;;11.26;87.18;102256.22;7421043;19;20011;-66
2022/01/27 09:46:58;;;;;;;7.07;2.00;;;;;;;11.26;86.63;102255.38;7414835;19;20188;-65
2022/01/27 09:52:04;;;;;;;7.32;3.67;;;;;;;11.22;86.58;102262.69;7393344;19;20014;-67
2022/01/27 09:54:34;;;;;;;8.85;2.83;;;;;;;11.20;86.70;102255.84;7395268;19;20003;-66
2022/01/27 09:57:02;;;;;;;9.93;2.00;;;;;;;11.22;86.98;102257.41;7391394;19;20448;-68
2022/01/27 09:59:29;;;;;;;6.97;2.00;;;;;;;11.25;86.86;102256.31;7390758;19;20269;-65
2022/01/27 10:02:04;;;;;;;7.32;2.50;;;;;;;11.27;86.82;102255.25;7391851;19;20010;-66
2022/01/27 10:04:41;;;;;;;9.75;2.08;;;;;;;11.29;86.76;102258.59;7393617;19;20024;-66
2022/01/27 10:07:10;;;;;;;8.52;2.45;;;;;;;11.30;87.14;102268.16;7391513;19;20011;-65
2022/01/27 10:09:37;;;;;;;7.38;1.90;;;;;;;11.31;87.14;102269.84;7394869;19;20019;-68
2022/01/27 10:12:05;;;;;;;9.77;3.47;;;;;;;11.31;86.87;102267.22;7395265;19;20408;-67
2022/01/27 10:14:37;;;;;;;7.45;3.45;;;;;;;11.35;87.30;102273.06;7390622;19;20472;-66
2022/01/27 10:17:10;;;;;;;12.25;3.15;;;;;;;11.38;87.14;102275.44;7389574;19;20034;-67
2022/01/27 10:19:38;;;;;;;8.70;2.40;;;;;;;11.41;87.75;102267.31;7393386;19;20024;-66
2022/01/27 10:22:10;;;;;;;8.23;2.15;;;;;;;11.42;87.65;102274.28;7391964;19;20006;-67
2022/01/27 10:24:37;;;;;;;5.53;2.30;;;;;;;11.45;87.82;102274.84;7390110;19;20915;-66
2022/01/27 10:27:21;;;;;;;7.45;2.08;;;;;;;11.52;87.96;102278.69;7390303;19;20389;-66
2022/01/27 10:32:36;;;;;;;6.65;2.95;;;;;;;11.58;87.83;102280.81;7391942;19;20014;-66
2022/01/27 10:35:04;;;;;;;5.57;2.30;;;;;;;11.60;87.74;102283.31;7389527;19;20026;-67
2022/01/27 10:38:00;;;;;;;10.57;2.33;;;;;;;11.61;87.93;102284.16;7390121;19;20025;-67
2022/01/27 10:40:38;;;;;;;6.95;2.15;;;;;;;11.63;88.05;102288.34;7392365;19;20049;-66
2022/01/27 10:43:07;;;;;;;11.05;5.40;;;;;;;11.73;90.43;102283.22;7392100;19;20018;-66
2022/01/27 10:45:53;;;;;;;9.43;3.53;;;;;;;11.76;90.09;102275.06;7390485;19;20053;-66
2022/01/27 10:48:24;;;;;;;11.07;5.25;;;;;;;11.76;89.25;102283.81;7391628;19;20095;-66
2022/01/27 10:53:49;;;;;;;11.80;4.63;;;;;;;11.80;88.36;102276.47;7391595;19;20290;-67
2022/01/27 10:56:22;;;;;;;6.10;2.95;;;;;;;11.79;88.53;102274.78;7388952;19;20010;-67
2022/01/27 10:58:49;;;;;;;8.13;2.20;;;;;;;11.82;88.18;102285.13;7387351;19;20411;-68
2022/01/27 11:01:27;;;;;;;9.07;1.90;;;;;;;11.82;88.32;102282.47;7389316;19;20010;-68
2022/01/27 11:04:01;;;;;;;8.68;4.32;;;;;;;11.85;88.27;102280.41;7390099;19;20006;-66
2022/01/27 11:06:30;;;;;;;6.15;2.60;;;;;;;11.88;88.27;102285.47;7384102;19;20325;-67
2022/01/27 11:09:03;;;;;;;7.22;2.85;;;;;;;11.93;88.65;102279.81;7390424;19;20029;-66
2022/01/27 11:11:30;;;;;;;5.20;2.53;;;;;;;11.96;88.62;102292.72;7387522;19;20373;-67
2022/01/27 11:13:59;;;;;;;6.07;2.47;;;;;;;11.99;88.47;102282.75;7390674;19;20275;-67
2022/01/27 11:16:33;;;;;;;10.20;3.95;;;;;;;12.03;88.32;102285.16;7391496;19;20014;-66
2022/01/27 11:21:49;;;;;;;7.13;2.90;;;;;;;12.07;88.90;102281.28;7387531;19;20557;-65
2022/01/27 11:24:26;;;;;;;8.85;2.95;;;;;;;12.09;88.70;102289.94;7388194;19;20463;-67
2022/01/27 11:26:56;;;;;;;5.95;2.55;;;;;;;12.12;88.68;102293.16;7387926;19;20006;-66
2022/01/27 11:29:26;;;;;;;7.22;3.42;;;;;;;12.14;88.70;102283.28;7390216;19;20015;-66
2022/01/27 11:32:03;;;;;;;9.82;3.50;;;;;;;12.19;88.84;102288.22;7392288;19;20014;-70
2022/01/27 11:34:49;;;;;;;8.68;4.63;;;;;;;12.21;88.59;102289.75;7389835;19;20006;-67
2022/01/27 11:37:18;;;;;;;10.10;4.75;;;;;;;12.23;88.97;102285.19;7388064;19;20353;-65
2022/01/27 11:39:55;;;;;;;10.48;5.45;;;;;;;12.23;89.01;102277.28;7392188;19;20042;-66
2022/01/27 11:42:53;;;;;;;14.75;6.07;;;;;;;12.25;89.23;102279.75;7386097;19;20014;-66
2022/01/27 11:45:21;;;;;;;12.48;6.60;;;;;;;12.27;88.74;102283.97;7390635;19;20007;-66
2022/01/27 11:47:49;;;;;;;11.63;6.40;;;;;;;12.28;88.93;102275.09;7388865;19;20014;-65
2022/01/27 11:50:34;;;;;;;11.45;6.47;;;;;;;12.30;89.25;102278.41;7385624;19;20173;-66
2022/01/27 11:53:06;;;;;;;16.77;6.90;;;;;;;12.32;89.11;102273.03;7390466;19;20071;-66
2022/01/27 11:55:33;;;;;;;14.65;6.65;;;;;;;12.34;89.28;102276.38;7387261;19;20018;-65
2022/01/27 11:58:11;;;;;;;18.00;10.50;;;;;;;12.35;89.45;102262.19;7385895;19;20010;-65
2022/01/27 12:00:39;;;;;;;13.13;6.38;;;;;;;12.37;89.42;102270.84;7385575;19;20011;-65
2022/01/27 12:03:07;;;;;;;9.15;4.25;;;;;;;12.42;89.84;102266.00;7387896;19;20013;-65
2022/01/27 12:05:39;;;;;;;13.82;7.00;;;;;;;12.45;89.90;102268.38;7388506;19;20050;-65
2022/01/27 12:08:09;;;;;;;8.35;4.53;;;;;;;12.47;90.15;102273.53;7385793;19;20733;-66
2022/01/27 12:10:39;;;;;;;11.48;4.13;;;;;;;12.49;89.88;102283.00;7388371;19;20022;-65
2022/01/27 12:16:23;;;;;;;8.45;3.30;;;;;;;12.47;90.58;102287.56;7386177;19;20010;-66
2022/01/27 12:19:02;;;;;;;10.30;5.13;;;;;;;12.46;91.14;102292.97;7390444;19;20010;-65
2022/01/27 12:21:33;;;;;;;8.15;3.25;;;;;;;12.42;91.36;102290.59;7392225;19;20023;-66
2022/01/27 12:24:11;;;;;;;6.97;3.75;;;;;;;12.41;91.65;102302.13;7386977;19;20007;-66
2022/01/27 12:26:57;;;;;;;7.55;3.78;;;;;;;12.40;91.80;102297.78;7385321;19;20018;-66
2022/01/27 12:29:28;;;;;;;8.43;3.20;;;;;;;12.38;92.12;102304.19;7386766;19;20014;-66
2022/01/27 12:31:57;;;;;;;11.13;4.68;;;;;;;12.37;92.65;102305.16;7389652;19;20011;-66